Pilgrim, New York
Current Conditions -  °F | °C
As of 8:51 AM on Saturday 20 Dec 2014 (Local Time) from KLGA Reporting Station
Overcast Overcast  
Wind Chill: 22°   Ceiling: 2600
Heat Index: 31°   Visibility: 10mi
Dew Point: 21°   Wind: 12mph
Humidity: 67%   Direction: 10°N
Pressure: 30.29"   Gusts: NA
Location:  40.8469°N, 73.8398°W
Report Text: KLGA 201351Z 01010KT 10SM OVC026 M01/M06 A3029 RMK AO2 SLP255 T10061061
Loading
Personal Weather Stations






























Interactive Weather Map New forecast layout! Learn more

10-Day Weather Forecast

Advertisements
Track Severe Weather on mobile